Time;durP1;ratioP1;P1;durP2;ratioP2;P2;SDS_P1;SDS_P2;PMS_P1;PMS_P2;Temp;Humidity;BMP_temperature;BMP_pressure;BME280_temperature;BME280_humidity;BME280_pressure;Samples;Min_cycle;Max_cycle;Signal;HPM_P1;HPM_P2
2023/05/10 00:01:40;;;;;;;0.90;0.90;;;;;;;;;;4944238;29;20271;-62
2023/05/10 00:04:08;;;;;;;5.93;2.38;;;;;;;;;;4943654;29;20710;-62
2023/05/10 00:06:38;;;;;;;1.43;1.33;;;;;;;;;;4944609;29;20654;-64
2023/05/10 00:09:06;;;;;;;0.90;0.90;;;;;;;;;;4927230;29;20712;-64
2023/05/10 00:11:34;;;;;;;1.02;0.90;;;;;;;;;;4944214;29;20311;-61
2023/05/10 00:14:03;;;;;;;1.57;1.17;;;;;;;;;;4943513;29;20265;-63
2023/05/10 00:16:31;;;;;;;0.80;0.80;;;;;;;;;;4927863;29;20691;-62
2023/05/10 00:18:59;;;;;;;0.93;0.93;;;;;;;;;;4943420;29;20784;-61
2023/05/10 00:21:28;;;;;;;1.20;1.20;;;;;;;;;;4944011;29;20280;-62
2023/05/10 00:23:57;;;;;;;1.00;1.00;;;;;;;;;;4947132;29;20698;-63
2023/05/10 00:26:26;;;;;;;4.00;1.13;;;;;;;;;;4947640;29;20768;-63
2023/05/10 00:28:58;;;;;;;1.20;1.20;;;;;;;;;;4946641;29;21045;-62
2023/05/10 00:31:26;;;;;;;1.05;1.05;;;;;;;;;;4938507;29;20634;-62
2023/05/10 00:33:54;;;;;;;1.30;1.20;;;;;;;;;;4948202;29;20873;-61
2023/05/10 00:36:23;;;;;;;0.90;0.90;;;;;;;;;;4948572;29;20746;-61
2023/05/10 00:38:51;;;;;;;1.57;1.20;;;;;;;;;;4947665;29;20287;-61
2023/05/10 00:41:21;;;;;;;1.00;1.00;;;;;;;;;;4930147;29;20725;-63
2023/05/10 00:43:50;;;;;;;1.33;1.20;;;;;;;;;;4934339;29;20788;-62
2023/05/10 00:46:18;;;;;;;3.80;1.50;;;;;;;;;;4912440;29;20685;-61
2023/05/10 00:48:46;;;;;;;1.20;1.10;;;;;;;;;;4928947;29;20659;-62
2023/05/10 00:51:15;;;;;;;5.18;3.05;;;;;;;;;;4927710;29;20712;-62
2023/05/10 00:53:44;;;;;;;3.83;1.60;;;;;;;;;;4928797;29;20197;-62
2023/05/10 00:56:12;;;;;;;3.23;1.53;;;;;;;;;;4942548;29;21096;-62
2023/05/10 00:58:42;;;;;;;1.40;1.30;;;;;;;;;;4947637;29;20678;-61
2023/05/10 01:01:11;;;;;;;1.93;1.47;;;;;;;;;;4930469;29;20669;-61
2023/05/10 01:03:39;;;;;;;1.30;1.30;;;;;;;;;;4946595;29;20736;-62
2023/05/10 01:06:07;;;;;;;2.17;1.50;;;;;;;;;;4947191;29;21269;-62
2023/05/10 01:08:36;;;;;;;2.50;1.63;;;;;;;;;;4947136;29;20730;-66
2023/05/10 01:11:04;;;;;;;2.40;2.10;;;;;;;;;;4930490;29;20705;-61
2023/05/10 01:13:34;;;;;;;7.70;1.90;;;;;;;;;;4946881;29;20711;-62
2023/05/10 01:16:04;;;;;;;1.80;1.70;;;;;;;;;;4947562;29;20682;-61
2023/05/10 01:18:34;;;;;;;2.17;1.90;;;;;;;;;;4948011;29;20695;-62
2023/05/10 01:21:09;;;;;;;2.30;2.20;;;;;;;;;;4930530;29;20679;-61
2023/05/10 01:23:45;;;;;;;3.00;2.40;;;;;;;;;;4947193;29;20800;-61
2023/05/10 01:26:20;;;;;;;2.20;2.00;;;;;;;;;;4947017;29;20690;-62
2023/05/10 01:29:07;;;;;;;2.50;2.37;;;;;;;;;;4945751;29;20687;-61
2023/05/10 01:31:45;;;;;;;2.40;2.30;;;;;;;;;;4930372;29;20722;-66
2023/05/10 01:34:17;;;;;;;2.67;2.57;;;;;;;;;;4929157;29;21190;-61
2023/05/10 01:36:49;;;;;;;2.77;2.67;;;;;;;;;;4946777;29;21186;-62
2023/05/10 01:39:22;;;;;;;2.57;2.47;;;;;;;;;;4946990;29;20679;-61
2023/05/10 01:41:52;;;;;;;2.60;2.17;;;;;;;;;;4947256;29;20665;-62
2023/05/10 01:44:25;;;;;;;2.63;2.53;;;;;;;;;;4946301;29;20719;-62
2023/05/10 01:46:55;;;;;;;3.83;2.60;;;;;;;;;;4946668;29;20268;-61
2023/05/10 01:49:25;;;;;;;2.50;2.40;;;;;;;;;;4947169;29;20687;-61
2023/05/10 01:51:55;;;;;;;6.33;2.60;;;;;;;;;;4936016;29;20734;-61
2023/05/10 01:54:25;;;;;;;2.03;1.93;;;;;;;;;;4927743;29;21242;-62
2023/05/10 01:56:57;;;;;;;3.20;3.00;;;;;;;;;;4927904;29;20682;-62
2023/05/10 01:59:26;;;;;;;3.00;2.20;;;;;;;;;;4917146;29;20628;-62
2023/05/10 02:01:55;;;;;;;2.73;2.40;;;;;;;;;;4945906;29;20727;-63
2023/05/10 02:04:25;;;;;;;2.50;2.40;;;;;;;;;;4911585;29;20711;-62
2023/05/10 02:06:55;;;;;;;4.33;2.33;;;;;;;;;;4938330;29;20789;-62
2023/05/10 02:09:24;;;;;;;2.70;2.50;;;;;;;;;;4944773;29;20751;-63
2023/05/10 02:11:52;;;;;;;3.10;2.90;;;;;;;;;;4946272;29;20673;-62
2023/05/10 02:14:24;;;;;;;2.67;2.47;;;;;;;;;;4945801;29;20720;-63
2023/05/10 02:16:53;;;;;;;3.37;3.17;;;;;;;;;;4946919;29;20737;-62
2023/05/10 02:19:21;;;;;;;3.00;2.80;;;;;;;;;;4929710;29;20716;-62
2023/05/10 02:21:52;;;;;;;4.73;2.60;;;;;;;;;;4945200;29;20717;-63
2023/05/10 02:24:20;;;;;;;3.57;3.10;;;;;;;;;;4929842;29;20736;-63
2023/05/10 02:26:50;;;;;;;4.53;3.90;;;;;;;;;;4945542;29;20715;-62
2023/05/10 02:29:19;;;;;;;3.53;3.33;;;;;;;;;;4945690;29;20690;-61
2023/05/10 02:31:47;;;;;;;3.30;3.10;;;;;;;;;;4946136;29;20677;-63
2023/05/10 02:34:16;;;;;;;4.10;3.80;;;;;;;;;;4944136;29;20731;-62
2023/05/10 02:36:44;;;;;;;3.20;2.97;;;;;;;;;;4945043;29;20666;-61
2023/05/10 02:39:14;;;;;;;3.40;3.20;;;;;;;;;;4936512;29;20700;-62
2023/05/10 02:41:43;;;;;;;3.03;2.83;;;;;;;;;;4945585;29;20656;-62
2023/05/10 02:44:12;;;;;;;4.00;3.47;;;;;;;;;;4945701;29;20724;-62
2023/05/10 02:46:40;;;;;;;5.20;4.70;;;;;;;;;;4934915;29;20708;-64
2023/05/10 02:49:08;;;;;;;3.77;3.57;;;;;;;;;;4945344;29;20695;-61
2023/05/10 02:51:39;;;;;;;10.53;4.60;;;;;;;;;;4935820;29;20693;-63
2023/05/10 02:54:11;;;;;;;3.83;3.30;;;;;;;;;;4946660;29;20648;-63
2023/05/10 02:56:44;;;;;;;3.93;3.73;;;;;;;;;;4944474;29;20695;-62
2023/05/10 02:59:12;;;;;;;4.13;3.83;;;;;;;;;;4945119;29;20657;-61
2023/05/10 03:01:40;;;;;;;5.00;4.70;;;;;;;;;;4945412;29;20673;-61
2023/05/10 03:04:09;;;;;;;4.50;4.20;;;;;;;;;;4943127;29;21285;-62
2023/05/10 03:06:37;;;;;;;4.00;3.80;;;;;;;;;;4943605;29;20712;-62
2023/05/10 03:09:09;;;;;;;4.47;4.17;;;;;;;;;;4928425;29;20755;-66
2023/05/10 03:11:49;;;;;;;4.53;4.20;;;;;;;;;;4937531;29;20592;-66
2023/05/10 03:14:23;;;;;;;3.90;3.70;;;;;;;;;;4935098;29;20580;-66
2023/05/10 03:16:58;;;;;;;5.50;5.20;;;;;;;;;;4901929;29;20799;-66
2023/05/10 03:19:29;;;;;;;4.90;4.50;;;;;;;;;;4934907;29;20579;-66
2023/05/10 03:22:00;;;;;;;6.17;4.40;;;;;;;;;;4917959;29;20584;-66
2023/05/10 03:24:32;;;;;;;4.50;4.10;;;;;;;;;;4917828;29;20614;-66
2023/05/10 03:27:04;;;;;;;4.07;3.77;;;;;;;;;;4918093;29;20599;-65
2023/05/10 03:29:33;;;;;;;6.90;4.10;;;;;;;;;;4933314;29;21135;-65
2023/05/10 03:32:01;;;;;;;4.70;4.40;;;;;;;;;;4935025;29;20604;-65
2023/05/10 03:34:32;;;;;;;4.33;4.03;;;;;;;;;;4918051;29;20193;-65
2023/05/10 03:37:00;;;;;;;6.03;5.63;;;;;;;;;;4918136;29;20714;-65
2023/05/10 03:39:32;;;;;;;5.10;4.70;;;;;;;;;;4917313;29;20599;-66
2023/05/10 03:42:03;;;;;;;5.10;4.80;;;;;;;;;;4918742;29;20620;-65
2023/05/10 03:44:33;;;;;;;6.47;5.63;;;;;;;;;;4917830;29;20644;-65
2023/05/10 03:47:01;;;;;;;6.25;5.65;;;;;;;;;;4934607;29;20636;-65
2023/05/10 03:49:29;;;;;;;6.60;6.10;;;;;;;;;;4917117;29;20209;-65
2023/05/10 03:51:58;;;;;;;7.45;6.10;;;;;;;;;;4904642;29;20629;-65
2023/05/10 03:54:26;;;;;;;8.47;5.40;;;;;;;;;;4904794;29;20801;-65
2023/05/10 03:56:57;;;;;;;7.20;6.50;;;;;;;;;;4926044;29;21054;-65
2023/05/10 03:59:27;;;;;;;7.37;6.87;;;;;;;;;;4952542;29;21454;-65
2023/05/10 04:01:55;;;;;;;6.93;6.43;;;;;;;;;;4920645;29;20663;-65
2023/05/10 04:04:23;;;;;;;6.55;6.05;;;;;;;;;;4936589;29;20664;-65
2023/05/10 04:06:52;;;;;;;6.37;5.90;;;;;;;;;;4951536;29;20196;-65
2023/05/10 04:09:21;;;;;;;6.40;5.90;;;;;;;;;;4937550;29;21228;-65
2023/05/10 04:11:49;;;;;;;6.50;6.00;;;;;;;;;;4920866;29;20638;-65
2023/05/10 04:14:17;;;;;;;7.10;6.50;;;;;;;;;;4937006;29;21178;-65
2023/05/10 04:16:48;;;;;;;10.70;6.50;;;;;;;;;;4937618;29;20607;-66
2023/05/10 04:19:17;;;;;;;9.23;7.27;;;;;;;;;;4938433;29;20604;-65
2023/05/10 04:21:45;;;;;;;6.90;6.30;;;;;;;;;;4939072;29;20595;-65
2023/05/10 04:24:13;;;;;;;7.20;6.50;;;;;;;;;;4921343;29;21194;-65
2023/05/10 04:26:42;;;;;;;7.50;6.10;;;;;;;;;;4920833;29;20616;-65
2023/05/10 04:29:10;;;;;;;7.20;6.07;;;;;;;;;;4937605;29;20956;-65
2023/05/10 04:31:38;;;;;;;7.80;6.47;;;;;;;;;;4937373;29;21016;-65
2023/05/10 04:34:08;;;;;;;6.57;6.07;;;;;;;;;;4937633;29;20640;-65
2023/05/10 04:36:36;;;;;;;7.60;7.00;;;;;;;;;;4937872;29;20635;-65
2023/05/10 04:39:05;;;;;;;7.40;6.70;;;;;;;;;;4937795;29;20624;-65
2023/05/10 04:41:33;;;;;;;7.20;6.60;;;;;;;;;;4938475;29;20633;-65
2023/05/10 04:44:01;;;;;;;6.70;6.00;;;;;;;;;;4937790;29;20679;-65
2023/05/10 04:46:30;;;;;;;7.27;6.57;;;;;;;;;;4937883;29;20994;-65
2023/05/10 04:48:58;;;;;;;7.33;6.73;;;;;;;;;;4937730;29;20616;-65
2023/05/10 04:51:27;;;;;;;8.00;7.20;;;;;;;;;;4936116;29;21008;-65
2023/05/10 04:53:56;;;;;;;7.83;7.23;;;;;;;;;;4937775;29;20649;-66
2023/05/10 04:56:24;;;;;;;8.10;7.40;;;;;;;;;;4936240;29;20617;-65
2023/05/10 04:58:52;;;;;;;7.90;7.10;;;;;;;;;;4936772;29;20602;-65
2023/05/10 05:01:20;;;;;;;7.43;6.93;;;;;;;;;;4936215;29;20631;-65
2023/05/10 05:03:48;;;;;;;9.33;8.53;;;;;;;;;;4939288;29;20636;-65
2023/05/10 05:06:17;;;;;;;8.63;7.67;;;;;;;;;;4935033;29;20647;-65
2023/05/10 05:08:46;;;;;;;7.90;6.97;;;;;;;;;;4939655;29;20632;-65
2023/05/10 05:11:14;;;;;;;7.17;6.60;;;;;;;;;;4929011;29;20758;-65
2023/05/10 05:13:43;;;;;;;7.87;7.17;;;;;;;;;;4934604;29;20610;-65
2023/05/10 05:16:11;;;;;;;6.23;5.77;;;;;;;;;;4933536;29;20637;-65
2023/05/10 05:18:39;;;;;;;7.53;5.90;;;;;;;;;;4935253;29;20631;-65
2023/05/10 05:21:15;;;;;;;5.27;4.90;;;;;;;;;;4935997;29;20996;-65
2023/05/10 05:23:44;;;;;;;4.70;4.13;;;;;;;;;;4937123;29;21030;-66
2023/05/10 05:26:14;;;;;;;4.37;4.00;;;;;;;;;;4936619;29;20635;-66
2023/05/10 05:28:43;;;;;;;6.50;4.33;;;;;;;;;;4935925;29;20593;-66
2023/05/10 05:31:11;;;;;;;4.47;4.17;;;;;;;;;;4935824;29;20611;-66
2023/05/10 05:33:39;;;;;;;4.53;4.23;;;;;;;;;;4936351;29;20636;-66
2023/05/10 05:36:07;;;;;;;5.20;4.70;;;;;;;;;;4935920;29;20612;-65
2023/05/10 05:38:36;;;;;;;5.03;4.73;;;;;;;;;;4935231;29;20634;-65
2023/05/10 05:41:04;;;;;;;8.53;5.30;;;;;;;;;;4935550;29;20621;-66
2023/05/10 05:43:33;;;;;;;6.10;5.10;;;;;;;;;;4934617;29;20603;-66
2023/05/10 05:46:02;;;;;;;5.50;5.00;;;;;;;;;;4934657;29;20635;-66
2023/05/10 05:48:31;;;;;;;7.23;5.97;;;;;;;;;;4935652;29;20628;-66
2023/05/10 05:50:59;;;;;;;5.37;5.07;;;;;;;;;;4937242;29;20628;-69
2023/05/10 05:53:27;;;;;;;10.40;5.50;;;;;;;;;;4936816;29;20703;-68
2023/05/10 05:55:57;;;;;;;6.57;6.07;;;;;;;;;;4944608;29;20690;-68
2023/05/10 05:58:25;;;;;;;8.77;5.33;;;;;;;;;;4944285;29;20668;-69
2023/05/10 06:00:55;;;;;;;6.17;5.57;;;;;;;;;;4923125;29;20705;-66
2023/05/10 06:03:23;;;;;;;8.53;5.63;;;;;;;;;;4920077;29;20605;-68
2023/05/10 06:05:52;;;;;;;7.70;7.13;;;;;;;;;;4919452;29;20656;-67
2023/05/10 06:08:20;;;;;;;6.57;5.97;;;;;;;;;;4935971;29;21145;-69
2023/05/10 06:10:48;;;;;;;8.10;7.40;;;;;;;;;;4940888;29;20744;-69
2023/05/10 06:13:16;;;;;;;7.90;7.10;;;;;;;;;;4948428;29;21069;-68
2023/05/10 06:15:45;;;;;;;8.93;6.53;;;;;;;;;;4945382;29;21181;-67
2023/05/10 06:18:14;;;;;;;7.63;6.40;;;;;;;;;;4943620;29;20697;-67
2023/05/10 06:20:43;;;;;;;6.87;6.17;;;;;;;;;;4938783;29;20778;-69
2023/05/10 06:23:11;;;;;;;5.87;5.47;;;;;;;;;;4937428;29;21042;-69
2023/05/10 06:25:40;;;;;;;8.13;5.60;;;;;;;;;;4938851;29;20639;-69
2023/05/10 06:28:08;;;;;;;5.07;4.77;;;;;;;;;;4944983;29;20994;-68
2023/05/10 06:30:37;;;;;;;5.67;5.17;;;;;;;;;;4936734;29;20727;-69
2023/05/10 06:33:05;;;;;;;5.17;4.60;;;;;;;;;;4935173;29;21051;-69
2023/05/10 06:35:36;;;;;;;4.70;4.23;;;;;;;;;;4934465;29;20628;-70
2023/05/10 06:38:04;;;;;;;4.60;4.30;;;;;;;;;;4934754;29;20563;-70
2023/05/10 06:40:33;;;;;;;4.47;4.27;;;;;;;;;;4934104;29;20610;-70
2023/05/10 06:43:01;;;;;;;4.90;4.50;;;;;;;;;;4934608;29;20631;-70
2023/05/10 06:45:29;;;;;;;4.50;4.10;;;;;;;;;;4931484;29;20668;-69
2023/05/10 06:47:57;;;;;;;3.80;3.60;;;;;;;;;;4932450;29;20602;-69
2023/05/10 06:50:26;;;;;;;3.37;3.17;;;;;;;;;;4933235;29;20648;-68
2023/05/10 06:52:56;;;;;;;3.57;3.37;;;;;;;;;;4934171;29;20624;-70
2023/05/10 06:55:24;;;;;;;5.20;3.70;;;;;;;;;;4949651;29;21025;-68
2023/05/10 06:57:52;;;;;;;3.70;3.50;;;;;;;;;;4948573;29;20688;-68
2023/05/10 07:00:21;;;;;;;3.60;3.40;;;;;;;;;;4946284;29;20692;-68
2023/05/10 07:02:49;;;;;;;2.90;2.77;;;;;;;;;;4942696;29;20673;-67
2023/05/10 07:05:17;;;;;;;2.73;2.53;;;;;;;;;;4941226;29;20747;-68
2023/05/10 07:07:46;;;;;;;3.30;2.30;;;;;;;;;;4943634;29;20692;-67
2023/05/10 07:10:15;;;;;;;3.10;2.87;;;;;;;;;;4950011;29;20685;-67
2023/05/10 07:12:44;;;;;;;2.20;2.00;;;;;;;;;;4942539;29;20648;-67
2023/05/10 07:15:12;;;;;;;1.70;1.43;;;;;;;;;;4941861;29;20675;-69
2023/05/10 07:17:40;;;;;;;1.97;1.37;;;;;;;;;;4945096;29;20668;-69
2023/05/10 07:20:09;;;;;;;1.77;1.40;;;;;;;;;;4945796;29;20692;-70
2023/05/10 07:22:38;;;;;;;4.80;1.13;;;;;;;;;;4946810;29;20662;-70
2023/05/10 07:25:06;;;;;;;3.00;1.20;;;;;;;;;;4931497;29;20795;-68
2023/05/10 07:27:36;;;;;;;1.93;0.97;;;;;;;;;;4957026;29;20761;-67
2023/05/10 07:30:04;;;;;;;1.10;1.00;;;;;;;;;;4933567;29;20703;-68
2023/05/10 07:32:33;;;;;;;1.40;1.30;;;;;;;;;;4933852;29;21088;-70
2023/05/10 07:35:01;;;;;;;2.00;1.40;;;;;;;;;;4935394;29;20625;-71
2023/05/10 07:37:29;;;;;;;2.70;1.53;;;;;;;;;;4939092;29;20720;-70
2023/05/10 07:39:58;;;;;;;2.23;0.90;;;;;;;;;;4940818;29;20720;-69
2023/05/10 07:42:26;;;;;;;1.40;1.30;;;;;;;;;;4940027;29;20732;-68
2023/05/10 07:44:56;;;;;;;1.40;1.30;;;;;;;;;;4938735;29;20725;-69
2023/05/10 07:47:24;;;;;;;1.10;1.10;;;;;;;;;;4937328;29;20669;-69
2023/05/10 07:49:52;;;;;;;1.77;1.20;;;;;;;;;;4941380;29;21101;-68
2023/05/10 07:52:20;;;;;;;1.27;1.23;;;;;;;;;;4933381;29;20696;-68
2023/05/10 07:54:49;;;;;;;3.17;1.40;;;;;;;;;;4949339;29;20651;-67
2023/05/10 07:57:17;;;;;;;1.10;1.10;;;;;;;;;;4946502;29;20711;-67
2023/05/10 07:59:46;;;;;;;2.40;1.03;;;;;;;;;;4943845;29;20702;-68
2023/05/10 08:02:16;;;;;;;1.73;1.20;;;;;;;;;;4907129;29;20723;-68
2023/05/10 08:04:44;;;;;;;1.00;1.00;;;;;;;;;;4935868;29;20635;-68
2023/05/10 08:07:12;;;;;;;1.30;1.20;;;;;;;;;;4935889;29;20668;-69
2023/05/10 08:09:40;;;;;;;1.50;1.40;;;;;;;;;;4934768;29;20664;-69
2023/05/10 08:12:08;;;;;;;1.10;1.10;;;;;;;;;;4931847;29;20642;-70
2023/05/10 08:14:37;;;;;;;1.73;1.53;;;;;;;;;;4940500;29;21056;-68
2023/05/10 08:17:05;;;;;;;1.27;1.20;;;;;;;;;;4946507;29;20854;-69
2023/05/10 08:19:35;;;;;;;1.40;1.30;;;;;;;;;;4939953;29;20713;-69
2023/05/10 08:22:03;;;;;;;1.37;1.30;;;;;;;;;;4931560;29;20642;-69
2023/05/10 08:24:32;;;;;;;1.27;1.10;;;;;;;;;;4939670;29;20806;-69
2023/05/10 08:27:00;;;;;;;1.17;1.17;;;;;;;;;;4931275;29;20725;-69
2023/05/10 08:29:28;;;;;;;2.40;1.40;;;;;;;;;;4941392;29;20715;-69
2023/05/10 08:31:57;;;;;;;1.23;1.13;;;;;;;;;;4937273;29;20692;-69
2023/05/10 08:34:25;;;;;;;3.90;1.20;;;;;;;;;;4941964;29;20711;-69
2023/05/10 08:36:55;;;;;;;1.63;1.50;;;;;;;;;;4942079;29;20685;-69
2023/05/10 08:39:23;;;;;;;2.00;1.60;;;;;;;;;;4936544;29;20715;-72
2023/05/10 08:41:53;;;;;;;2.20;1.20;;;;;;;;;;4948354;29;20695;-68
2023/05/10 08:44:22;;;;;;;1.97;1.47;;;;;;;;;;4948634;29;20688;-69
2023/05/10 08:46:54;;;;;;;1.53;1.43;;;;;;;;;;4949098;29;20703;-69
2023/05/10 08:49:23;;;;;;;1.60;1.50;;;;;;;;;;4949134;29;20667;-69
2023/05/10 08:51:53;;;;;;;4.90;2.00;;;;;;;;;;4943719;29;20753;-69
2023/05/10 08:54:22;;;;;;;2.20;1.40;;;;;;;;;;4944990;29;20723;-67
2023/05/10 08:56:51;;;;;;;1.43;1.33;;;;;;;;;;4942265;29;20699;-68
2023/05/10 08:59:19;;;;;;;1.80;1.40;;;;;;;;;;4937003;29;20628;-70
2023/05/10 09:01:49;;;;;;;1.23;1.13;;;;;;;;;;4923321;29;20640;-67
2023/05/10 09:04:17;;;;;;;2.10;1.50;;;;;;;;;;4942687;29;21005;-68
2023/05/10 09:06:45;;;;;;;1.00;1.00;;;;;;;;;;4942267;29;20664;-69
2023/05/10 09:09:14;;;;;;;1.10;1.10;;;;;;;;;;4937639;29;21286;-68
2023/05/10 09:11:44;;;;;;;1.47;1.10;;;;;;;;;;4924888;29;20633;-67
2023/05/10 09:14:13;;;;;;;2.20;1.47;;;;;;;;;;4945376;29;20667;-67
2023/05/10 09:16:42;;;;;;;1.67;1.33;;;;;;;;;;4943350;29;20717;-67
2023/05/10 09:19:10;;;;;;;1.67;1.40;;;;;;;;;;4942351;29;20708;-67
2023/05/10 09:21:39;;;;;;;1.20;1.07;;;;;;;;;;4948087;29;20703;-67
2023/05/10 09:24:07;;;;;;;1.30;1.30;;;;;;;;;;4943561;29;20724;-67
2023/05/10 09:26:36;;;;;;;1.67;1.03;;;;;;;;;;4945482;29;20735;-67
2023/05/10 09:29:08;;;;;;;1.20;1.10;;;;;;;;;;4948682;29;20704;-69
2023/05/10 09:31:46;;;;;;;3.70;1.30;;;;;;;;;;4949421;29;20685;-68
2023/05/10 09:34:17;;;;;;;1.13;1.03;;;;;;;;;;4951388;29;21178;-68
2023/05/10 09:36:56;;;;;;;1.13;1.03;;;;;;;;;;4950486;29;20690;-68
2023/05/10 09:39:31;;;;;;;1.20;1.10;;;;;;;;;;4945590;29;21163;-69
2023/05/10 09:42:00;;;;;;;2.10;1.10;;;;;;;;;;4949726;29;21151;-67
2023/05/10 09:44:30;;;;;;;1.50;1.20;;;;;;;;;;4946420;29;20729;-68
2023/05/10 09:46:58;;;;;;;2.30;1.23;;;;;;;;;;4945927;29;20751;-68
2023/05/10 09:49:26;;;;;;;2.17;1.40;;;;;;;;;;4945108;29;20807;-69
2023/05/10 09:52:04;;;;;;;0.90;0.90;;;;;;;;;;4940635;29;20647;-69
2023/05/10 09:54:33;;;;;;;1.53;1.43;;;;;;;;;;4941255;29;20732;-69
2023/05/10 09:57:01;;;;;;;1.57;1.47;;;;;;;;;;4933184;29;20816;-66
2023/05/10 09:59:31;;;;;;;1.37;1.27;;;;;;;;;;4933026;29;21197;-67
2023/05/10 10:01:59;;;;;;;7.90;1.40;;;;;;;;;;4933183;29;20625;-67
2023/05/10 10:04:28;;;;;;;2.13;1.50;;;;;;;;;;4932871;29;21023;-66
2023/05/10 10:07:03;;;;;;;1.90;1.63;;;;;;;;;;4932994;29;20668;-67
2023/05/10 10:09:32;;;;;;;1.90;1.73;;;;;;;;;;4934348;29;20678;-67
2023/05/10 10:12:00;;;;;;;2.20;1.67;;;;;;;;;;4936719;29;21054;-66
2023/05/10 10:14:30;;;;;;;1.97;1.77;;;;;;;;;;4933199;29;20679;-68
2023/05/10 10:16:58;;;;;;;1.97;1.87;;;;;;;;;;4934679;29;20639;-67
2023/05/10 10:19:27;;;;;;;3.00;2.00;;;;;;;;;;4919844;29;20621;-67
2023/05/10 10:21:55;;;;;;;7.13;2.80;;;;;;;;;;4932069;29;20740;-67
2023/05/10 10:24:23;;;;;;;2.37;2.13;;;;;;;;;;4926514;29;20633;-67
2023/05/10 10:26:54;;;;;;;4.43;2.30;;;;;;;;;;4929289;29;20632;-67
2023/05/10 10:29:25;;;;;;;3.23;2.20;;;;;;;;;;4929132;29;20612;-67
2023/05/10 10:31:59;;;;;;;2.50;2.30;;;;;;;;;;4935479;29;20974;-68
2023/05/10 10:34:28;;;;;;;2.87;1.60;;;;;;;;;;4938265;29;20599;-66
2023/05/10 10:36:57;;;;;;;2.00;1.90;;;;;;;;;;4932641;29;20615;-67
2023/05/10 10:39:26;;;;;;;1.97;1.80;;;;;;;;;;4932297;29;21195;-67
2023/05/10 10:41:55;;;;;;;1.70;1.60;;;;;;;;;;4932992;29;21038;-67
2023/05/10 10:44:37;;;;;;;1.70;1.60;;;;;;;;;;4933868;29;20620;-67
2023/05/10 10:47:24;;;;;;;1.43;1.33;;;;;;;;;;4929932;29;20608;-67
2023/05/10 10:49:54;;;;;;;1.57;1.47;;;;;;;;;;4931795;29;21181;-67
2023/05/10 10:52:28;;;;;;;3.03;1.50;;;;;;;;;;4932274;29;20609;-67
2023/05/10 10:55:00;;;;;;;1.50;1.40;;;;;;;;;;4932631;29;20678;-67
2023/05/10 10:57:29;;;;;;;1.40;1.30;;;;;;;;;;4917293;29;20617;-67
2023/05/10 11:00:16;;;;;;;1.97;1.33;;;;;;;;;;4931558;29;20628;-67
2023/05/10 11:02:48;;;;;;;2.40;1.27;;;;;;;;;;4930636;29;20671;-67
2023/05/10 11:05:26;;;;;;;1.93;1.47;;;;;;;;;;4932397;29;20613;-67
2023/05/10 11:07:55;;;;;;;3.07;1.83;;;;;;;;;;4933975;29;20668;-67
2023/05/10 11:10:23;;;;;;;3.23;2.30;;;;;;;;;;4933908;29;21035;-68
2023/05/10 11:12:55;;;;;;;2.37;1.80;;;;;;;;;;4932512;29;20660;-68
2023/05/10 11:15:30;;;;;;;2.40;2.20;;;;;;;;;;4935792;29;20620;-67
2023/05/10 11:18:00;;;;;;;2.07;1.97;;;;;;;;;;4933347;29;20615;-67
2023/05/10 11:20:33;;;;;;;2.77;2.50;;;;;;;;;;4932746;29;20628;-67
2023/05/10 11:23:15;;;;;;;3.73;2.17;;;;;;;;;;4932538;29;20997;-67
2023/05/10 11:25:44;;;;;;;2.53;2.43;;;;;;;;;;4914193;29;20978;-68
2023/05/10 11:28:13;;;;;;;2.50;2.30;;;;;;;;;;4928238;29;20726;-67
2023/05/10 11:30:41;;;;;;;2.93;2.77;;;;;;;;;;4932993;29;21109;-64
2023/05/10 11:33:11;;;;;;;3.50;3.33;;;;;;;;;;4932176;29;20655;-64
2023/05/10 11:35:40;;;;;;;2.73;2.53;;;;;;;;;;4932029;29;20639;-65
2023/05/10 11:38:09;;;;;;;3.50;3.20;;;;;;;;;;4932503;29;20629;-64
2023/05/10 11:40:37;;;;;;;3.30;3.10;;;;;;;;;;4937435;29;20686;-64
2023/05/10 11:43:06;;;;;;;4.23;3.13;;;;;;;;;;4933543;29;20666;-68
2023/05/10 11:45:34;;;;;;;4.30;3.57;;;;;;;;;;4928629;29;20626;-64
2023/05/10 11:48:03;;;;;;;4.97;4.30;;;;;;;;;;4925553;29;20731;-64
2023/05/10 11:50:32;;;;;;;3.73;3.40;;;;;;;;;;4933829;29;20640;-64
2023/05/10 11:53:01;;;;;;;3.57;3.30;;;;;;;;;;4932794;29;20624;-66
2023/05/10 11:55:31;;;;;;;4.17;3.97;;;;;;;;;;4932968;29;20632;-64
2023/05/10 11:58:03;;;;;;;4.80;4.23;;;;;;;;;;4933220;29;20633;-64
2023/05/10 12:00:31;;;;;;;4.73;4.50;;;;;;;;;;4934603;29;20619;-65
2023/05/10 12:03:00;;;;;;;5.00;4.73;;;;;;;;;;4929566;29;20639;-64
2023/05/10 12:05:28;;;;;;;4.77;4.57;;;;;;;;;;4929337;29;21264;-64
2023/05/10 12:08:11;;;;;;;5.37;5.17;;;;;;;;;;4932424;29;21226;-64
2023/05/10 12:10:41;;;;;;;8.93;5.17;;;;;;;;;;4914949;29;20709;-64
2023/05/10 12:13:13;;;;;;;5.53;5.23;;;;;;;;;;4925090;29;20692;-64
2023/05/10 12:15:42;;;;;;;6.03;5.73;;;;;;;;;;4926922;29;20620;-64
2023/05/10 12:18:11;;;;;;;5.37;5.07;;;;;;;;;;4929366;29;20645;-64
2023/05/10 12:20:39;;;;;;;5.33;5.03;;;;;;;;;;4936223;29;21068;-64
2023/05/10 12:23:10;;;;;;;4.60;4.40;;;;;;;;;;4935870;29;20629;-64
2023/05/10 12:25:39;;;;;;;5.30;4.93;;;;;;;;;;4936902;29;20624;-64
2023/05/10 12:28:10;;;;;;;5.20;4.83;;;;;;;;;;4934779;29;20666;-64
2023/05/10 12:30:39;;;;;;;5.20;5.00;;;;;;;;;;4936053;29;20690;-65
2023/05/10 12:33:09;;;;;;;5.10;5.00;;;;;;;;;;4936751;29;20710;-64
2023/05/10 12:35:45;;;;;;;5.40;5.10;;;;;;;;;;4936767;29;20713;-64
2023/05/10 12:38:28;;;;;;;5.00;4.80;;;;;;;;;;4934521;29;20614;-64
2023/05/10 12:40:57;;;;;;;4.90;4.70;;;;;;;;;;4935041;29;20613;-66
2023/05/10 12:43:26;;;;;;;4.80;4.60;;;;;;;;;;4935205;29;20650;-65
2023/05/10 12:45:55;;;;;;;9.07;5.17;;;;;;;;;;4930155;29;20659;-65
2023/05/10 12:48:23;;;;;;;4.20;4.10;;;;;;;;;;4931837;29;20664;-64
2023/05/10 12:50:52;;;;;;;4.57;4.23;;;;;;;;;;4935368;29;20633;-63
2023/05/10 12:53:20;;;;;;;4.80;4.40;;;;;;;;;;4923203;29;21171;-65
2023/05/10 12:55:48;;;;;;;5.10;4.70;;;;;;;;;;4930209;29;20636;-64
2023/05/10 12:58:16;;;;;;;6.00;5.60;;;;;;;;;;4932703;29;20650;-65
2023/05/10 13:00:46;;;;;;;5.40;5.00;;;;;;;;;;4937269;29;20639;-65
2023/05/10 13:03:15;;;;;;;5.53;5.03;;;;;;;;;;4945720;29;21181;-64
2023/05/10 13:05:43;;;;;;;5.30;5.10;;;;;;;;;;4933588;29;20676;-65
2023/05/10 13:08:12;;;;;;;4.97;4.87;;;;;;;;;;4934901;29;20628;-64
2023/05/10 13:10:40;;;;;;;5.37;4.97;;;;;;;;;;4929688;29;20668;-63
2023/05/10 13:13:09;;;;;;;5.70;5.30;;;;;;;;;;4932546;29;20631;-64
2023/05/10 13:15:38;;;;;;;5.50;5.30;;;;;;;;;;4936934;29;20643;-64
2023/05/10 13:18:07;;;;;;;5.30;5.10;;;;;;;;;;4935655;29;20636;-66
2023/05/10 13:20:36;;;;;;;5.50;5.30;;;;;;;;;;4918876;29;20637;-66
2023/05/10 13:23:04;;;;;;;6.37;6.07;;;;;;;;;;4934226;29;20952;-65
2023/05/10 13:25:34;;;;;;;5.80;5.50;;;;;;;;;;4934435;29;20632;-63
2023/05/10 13:28:02;;;;;;;5.30;5.20;;;;;;;;;;4924348;29;20647;-64
2023/05/10 13:30:30;;;;;;;5.90;5.60;;;;;;;;;;4940155;29;20667;-64
2023/05/10 13:32:59;;;;;;;6.03;5.53;;;;;;;;;;4908195;29;21220;-64
2023/05/10 13:35:28;;;;;;;6.00;5.90;;;;;;;;;;4936603;29;20637;-64
2023/05/10 13:37:57;;;;;;;6.33;5.80;;;;;;;;;;4929351;29;20638;-64
2023/05/10 13:40:25;;;;;;;6.57;5.97;;;;;;;;;;4947981;29;20634;-67
2023/05/10 13:42:54;;;;;;;5.87;5.77;;;;;;;;;;4938528;29;20631;-65
2023/05/10 13:45:22;;;;;;;6.20;6.00;;;;;;;;;;4935930;29;20668;-64
2023/05/10 13:47:50;;;;;;;6.13;5.93;;;;;;;;;;4914251;29;21069;-64
2023/05/10 13:50:19;;;;;;;6.37;6.07;;;;;;;;;;4942023;29;20668;-64
2023/05/10 13:52:48;;;;;;;6.80;6.50;;;;;;;;;;4937243;29;21159;-63
2023/05/10 13:55:16;;;;;;;6.43;6.23;;;;;;;;;;4926913;29;21199;-64
2023/05/10 13:57:45;;;;;;;6.40;6.30;;;;;;;;;;4926207;29;20636;-63
2023/05/10 14:00:13;;;;;;;7.13;6.60;;;;;;;;;;4947631;29;20631;-64
2023/05/10 14:02:42;;;;;;;6.83;6.53;;;;;;;;;;4926724;29;20644;-63
2023/05/10 14:05:10;;;;;;;7.40;6.97;;;;;;;;;;4940396;29;20643;-63
2023/05/10 14:07:38;;;;;;;6.83;6.43;;;;;;;;;;4932761;29;20636;-63
2023/05/10 14:10:08;;;;;;;7.40;7.10;;;;;;;;;;4932359;29;20671;-64
2023/05/10 14:12:36;;;;;;;8.47;7.67;;;;;;;;;;4937590;29;20651;-64
2023/05/10 14:15:06;;;;;;;6.60;6.40;;;;;;;;;;4943168;29;20642;-63
2023/05/10 14:17:34;;;;;;;7.23;6.93;;;;;;;;;;4949277;29;20624;-64
2023/05/10 14:20:03;;;;;;;6.67;6.57;;;;;;;;;;4946071;29;20608;-63
2023/05/10 14:22:31;;;;;;;6.80;6.50;;;;;;;;;;4937990;29;20632;-64
2023/05/10 14:25:00;;;;;;;6.80;6.60;;;;;;;;;;4931874;29;20633;-64
2023/05/10 14:27:30;;;;;;;6.33;6.13;;;;;;;;;;4947555;29;20640;-63
2023/05/10 14:29:58;;;;;;;6.33;6.13;;;;;;;;;;4937093;29;20674;-63
2023/05/10 14:32:27;;;;;;;6.50;5.97;;;;;;;;;;4935146;29;20725;-64
2023/05/10 14:34:55;;;;;;;6.40;6.20;;;;;;;;;;4934769;29;20629;-63
2023/05/10 14:37:23;;;;;;;6.80;6.17;;;;;;;;;;4925766;29;20628;-64
2023/05/10 14:39:52;;;;;;;6.30;6.10;;;;;;;;;;4935604;29;20632;-63
2023/05/10 14:42:20;;;;;;;6.43;6.23;;;;;;;;;;4934227;29;20624;-63
2023/05/10 14:44:49;;;;;;;7.20;6.77;;;;;;;;;;4934884;29;20687;-63
2023/05/10 14:47:18;;;;;;;5.80;5.70;;;;;;;;;;4934273;29;20623;-62
2023/05/10 14:49:46;;;;;;;6.67;6.47;;;;;;;;;;4922595;29;20686;-63
2023/05/10 14:52:15;;;;;;;6.50;6.10;;;;;;;;;;4933685;29;20628;-63
2023/05/10 14:54:43;;;;;;;6.57;6.30;;;;;;;;;;4934030;29;21027;-63
2023/05/10 14:57:11;;;;;;;6.50;6.00;;;;;;;;;;4943393;29;20628;-64